createdAt,value
2019-02-18T00:01:22.160Z,100472.95
2019-02-18T00:03:50.665Z,100477.70
2019-02-18T00:06:19.979Z,100471.70
2019-02-18T00:08:48.493Z,100472.04
2019-02-18T00:11:17.810Z,100466.05
2019-02-18T00:13:47.110Z,100469.88
2019-02-18T00:16:16.443Z,100471.02
2019-02-18T00:18:45.845Z,100475.34
2019-02-18T00:21:14.359Z,100482.35
2019-02-18T00:23:42.782Z,100474.84
2019-02-18T00:26:12.097Z,100472.73
2019-02-18T00:28:41.418Z,100472.55
2019-02-18T00:31:10.761Z,100473.27
2019-02-18T00:33:39.337Z,100475.56
2019-02-18T00:36:08.656Z,100472.25
2019-02-18T00:38:37.959Z,100473.14
2019-02-18T00:41:06.589Z,100470.20
2019-02-18T00:43:35.090Z,100465.15
2019-02-18T00:46:04.425Z,100465.84
2019-02-18T00:48:33.746Z,100462.20
2019-02-18T00:51:03.182Z,100454.73
2019-02-18T00:53:32.507Z,100462.77
2019-02-18T00:56:01.815Z,100457.73
2019-02-18T00:58:31.114Z,100451.27
2019-02-18T01:01:00.506Z,100447.08
2019-02-18T01:03:29.902Z,100445.55
2019-02-18T01:05:58.433Z,100441.13
2019-02-18T01:08:27.161Z,100434.44
2019-02-18T01:10:55.665Z,100435.10
2019-02-18T01:13:25.012Z,100436.45
2019-02-18T01:15:53.494Z,100429.67
2019-02-18T01:18:22.797Z,100429.84
2019-02-18T01:20:52.128Z,100432.22
2019-02-18T01:23:21.561Z,100434.80
2019-02-18T01:25:50.887Z,100425.91
2019-02-18T01:28:20.223Z,100421.40
2019-02-18T01:30:48.746Z,100416.73
2019-02-18T01:33:17.366Z,100416.55
2019-02-18T01:35:46.671Z,100414.91
2019-02-18T01:38:16.014Z,100414.94
2019-02-18T01:40:45.366Z,100424.45
2019-02-18T01:43:14.684Z,100412.77
2019-02-18T01:45:44.001Z,100415.80
2019-02-18T01:48:13.309Z,100413.67
2019-02-18T01:50:42.651Z,100412.76
2019-02-18T01:53:11.068Z,100410.31
2019-02-18T01:55:39.671Z,100403.89
2019-02-18T01:58:08.986Z,100408.90
2019-02-18T02:03:41.021Z,100409.03
2019-02-18T02:06:10.395Z,100409.78
2019-02-18T02:08:39.706Z,100409.16
2019-02-18T02:11:09.016Z,100405.48
2019-02-18T02:13:38.336Z,100400.95
2019-02-18T02:16:09.724Z,100401.70
2019-02-18T02:18:38.299Z,100404.38
2019-02-18T02:21:06.803Z,100404.92
2019-02-18T02:23:36.211Z,100400.20
2019-02-18T02:26:05.520Z,100403.10
2019-02-18T02:28:34.090Z,100403.91
2019-02-18T02:31:02.743Z,100402.41
2019-02-18T02:33:32.130Z,100401.06
2019-02-18T02:36:01.462Z,100402.53
2019-02-18T02:38:30.778Z,100400.72
2019-02-18T02:40:59.323Z,100408.48
2019-02-18T02:43:28.708Z,100404.16
2019-02-18T02:45:57.285Z,100406.72
2019-02-18T02:48:25.802Z,100403.88
2019-02-18T02:50:55.114Z,100408.31
2019-02-18T02:53:23.602Z,100412.41
2019-02-18T02:55:52.927Z,100417.13
2019-02-18T02:58:21.545Z,100410.23
2019-02-18T03:00:50.860Z,100416.67
2019-02-18T03:03:20.170Z,100418.55
2019-02-18T03:05:48.585Z,100417.03
2019-02-18T03:08:20.562Z,100416.02
2019-02-18T03:10:47.624Z,100422.02
2019-02-18T03:13:16.163Z,100419.29
2019-02-18T03:15:44.666Z,100418.99
2019-02-18T03:18:13.997Z,100425.02
2019-02-18T03:20:43.312Z,100424.44
2019-02-18T03:23:12.621Z,100421.59
2019-02-18T03:25:42.791Z,100423.70
2019-02-18T03:28:50.103Z,100422.05
2019-02-18T03:31:22.546Z,100426.30
2019-02-18T03:34:29.847Z,100426.72
2019-02-18T03:36:59.160Z,100426.28
2019-02-18T03:39:27.689Z,100421.13
2019-02-18T03:41:57.000Z,100422.12
2019-02-18T03:44:25.572Z,100425.53
2019-02-18T03:46:54.945Z,100426.34
2019-02-18T03:49:24.260Z,100429.43
2019-02-18T03:51:53.571Z,100429.03
2019-02-18T03:57:25.059Z,100424.22
2019-02-18T03:59:54.380Z,100419.89
2019-02-18T04:02:23.805Z,100412.03
2019-02-18T04:04:53.126Z,100413.73
2019-02-18T04:07:22.444Z,100407.80
2019-02-18T04:09:51.772Z,100414.39
2019-02-18T04:12:20.296Z,100418.67
2019-02-18T04:14:48.851Z,100415.19
2019-02-18T04:17:18.176Z,100416.03
2019-02-18T04:19:47.486Z,100419.92
2019-02-18T04:22:16.816Z,100423.82
2019-02-18T04:24:46.151Z,100428.09
2019-02-18T04:27:15.473Z,100429.33
2019-02-18T04:29:44.792Z,100428.02
2019-02-18T04:32:14.121Z,100430.66
2019-02-18T04:34:43.450Z,100429.05
2019-02-18T04:37:11.973Z,100440.67
2019-02-18T04:39:40.491Z,100442.00
2019-02-18T04:42:09.815Z,100436.36
2019-02-18T04:44:39.115Z,100436.81
2019-02-18T04:47:08.419Z,100440.73
2019-02-18T04:49:37.750Z,100434.26
2019-02-18T04:52:07.203Z,100439.06
2019-02-18T04:54:36.514Z,100438.15
2019-02-18T04:57:05.037Z,100436.77
2019-02-18T04:59:33.492Z,100439.77
2019-02-18T05:02:02.874Z,100444.58
2019-02-18T05:04:31.486Z,100441.98
2019-02-18T05:07:00.794Z,100445.08
2019-02-18T05:09:29.321Z,100441.22
2019-02-18T05:11:58.629Z,100443.81
2019-02-18T05:14:27.940Z,100445.89
2019-02-18T05:16:57.283Z,100445.89
2019-02-18T05:19:26.603Z,100451.94
2019-02-18T05:21:55.111Z,100451.97
2019-02-18T05:24:23.637Z,100463.64
2019-02-18T05:26:52.990Z,100467.52
2019-02-18T05:29:22.308Z,100470.06
2019-02-18T05:31:51.642Z,100474.49
2019-02-18T05:34:20.961Z,100472.71
2019-02-18T05:36:50.282Z,100468.28
2019-02-18T05:39:18.808Z,100471.41
2019-02-18T05:41:48.131Z,100475.29
2019-02-18T05:44:16.650Z,100478.30
2019-02-18T05:46:45.963Z,100487.92
2019-02-18T05:49:14.482Z,100493.92
2019-02-18T05:51:43.796Z,100495.23
2019-02-18T05:54:13.118Z,100495.22
2019-02-18T05:56:42.431Z,100496.92
2019-02-18T05:59:11.757Z,100500.34
2019-02-18T06:01:41.072Z,100504.99
2019-02-18T06:04:10.398Z,100512.69
2019-02-18T06:06:38.933Z,100512.25
2019-02-18T06:09:07.537Z,100508.42
2019-02-18T06:14:38.206Z,100509.31
2019-02-18T06:20:08.927Z,100519.05
2019-02-18T06:22:38.629Z,100517.36
2019-02-18T06:25:26.655Z,100512.54
2019-02-18T06:27:55.991Z,100513.58
2019-02-18T06:30:25.314Z,100524.40
2019-02-18T06:32:54.657Z,100530.34
2019-02-18T06:35:23.977Z,100533.31
2019-02-18T06:37:53.304Z,100527.98
2019-02-18T06:40:22.634Z,100526.56
2019-02-18T06:42:51.952Z,100523.05
2019-02-18T06:45:40.797Z,100523.53
2019-02-18T06:48:28.786Z,100523.51
2019-02-18T06:50:57.344Z,100528.17
2019-02-18T06:53:26.665Z,100525.52
2019-02-18T06:55:55.980Z,100525.55
2019-02-18T06:58:32.543Z,100526.80
2019-02-18T07:01:09.201Z,100536.27
2019-02-18T07:03:43.279Z,100532.31
2019-02-18T07:06:49.850Z,100533.34
2019-02-18T07:09:37.869Z,100524.53
2019-02-18T07:12:12.060Z,100518.37
2019-02-18T07:14:40.664Z,100525.67
2019-02-18T07:17:10.567Z,100528.23
2019-02-18T07:19:59.214Z,100521.20
2019-02-18T07:22:28.557Z,100521.86
2019-02-18T07:24:57.875Z,100520.97
2019-02-18T07:27:27.229Z,100519.84
2019-02-18T07:29:56.579Z,100527.17
2019-02-18T07:32:25.890Z,100524.06
2019-02-18T07:34:55.197Z,100530.84
2019-02-18T07:37:23.718Z,100519.67
2019-02-18T07:40:01.036Z,100519.01
2019-02-18T07:42:41.462Z,100521.50
2019-02-18T07:47:53.505Z,100527.19
2019-02-18T07:50:22.009Z,100525.59
2019-02-18T07:52:51.319Z,100519.33
2019-02-18T07:55:20.635Z,100529.03
2019-02-18T07:57:49.974Z,100530.98
2019-02-18T08:00:19.310Z,100531.42
2019-02-18T08:02:47.968Z,100534.42
2019-02-18T08:05:17.315Z,100531.19
2019-02-18T08:07:45.838Z,100527.31
2019-02-18T08:10:15.184Z,100527.96
2019-02-18T08:12:43.702Z,100527.61
2019-02-18T08:15:13.022Z,100513.92
2019-02-18T08:17:42.427Z,100524.48
2019-02-18T08:20:11.779Z,100522.88
2019-02-18T08:22:41.114Z,100522.50
2019-02-18T08:25:10.574Z,100519.14
2019-02-18T08:27:39.224Z,100516.66
2019-02-18T08:30:10.151Z,100520.44
2019-02-18T08:32:38.710Z,100523.02
2019-02-18T08:35:07.209Z,100525.23
2019-02-18T08:37:35.771Z,100528.68
2019-02-18T08:40:05.491Z,100518.09
2019-02-18T08:42:34.835Z,100529.61
2019-02-18T08:45:05.546Z,100529.38
2019-02-18T08:47:34.270Z,100523.84
2019-02-18T08:50:04.177Z,100517.11
2019-02-18T08:52:32.711Z,100519.14
2019-02-18T08:55:01.251Z,100518.84
2019-02-18T08:57:30.550Z,100515.72
2019-02-18T08:59:58.960Z,100514.91
2019-02-18T09:02:28.318Z,100515.02
2019-02-18T09:04:56.861Z,100509.61
2019-02-18T09:07:25.374Z,100512.77
2019-02-18T09:09:53.897Z,100511.34
2019-02-18T09:12:23.250Z,100510.81
2019-02-18T09:14:52.584Z,100507.59
2019-02-18T09:17:21.924Z,100502.26
2019-02-18T09:19:50.439Z,100504.28
2019-02-18T09:22:38.456Z,100499.44
2019-02-18T09:25:15.307Z,100499.16
2019-02-18T09:27:44.632Z,100495.75
2019-02-18T09:33:09.915Z,100490.97
2019-02-18T09:35:39.250Z,100494.64
2019-02-18T09:38:08.569Z,100488.33
2019-02-18T09:40:44.691Z,100491.84
2019-02-18T09:43:27.133Z,100485.20
2019-02-18T09:45:56.472Z,100489.67
2019-02-18T09:48:25.803Z,100489.03
2019-02-18T09:50:55.155Z,100491.52
2019-02-18T09:53:24.477Z,100486.41
2019-02-18T09:55:52.924Z,100485.47
2019-02-18T09:58:22.285Z,100479.20
2019-02-18T10:00:50.832Z,100470.14
2019-02-18T10:03:20.173Z,100464.59
2019-02-18T10:05:49.510Z,100470.14
2019-02-18T10:08:18.843Z,100465.06
2019-02-18T10:10:55.376Z,100461.52
2019-02-18T10:13:18.646Z,100458.83
2019-02-18T10:15:47.976Z,100459.67
2019-02-18T10:18:17.326Z,100458.02
2019-02-18T10:20:46.657Z,100451.23
2019-02-18T10:23:16.001Z,100454.32
2019-02-18T10:25:44.661Z,100448.92
2019-02-18T10:28:14.005Z,100434.81
2019-02-18T10:30:42.573Z,100440.05
2019-02-18T10:33:11.905Z,100430.92
2019-02-18T10:35:41.347Z,100427.37
2019-02-18T10:38:10.680Z,100422.86
2019-02-18T10:40:40.028Z,100419.20
2019-02-18T10:43:08.640Z,100420.23
2019-02-18T10:45:37.108Z,100417.98
2019-02-18T10:48:06.438Z,100407.45
2019-02-18T10:50:35.951Z,100408.12
2019-02-18T10:53:04.485Z,100406.14
2019-02-18T10:55:33.828Z,100401.02
2019-02-18T10:58:03.175Z,100391.30
2019-02-18T11:00:32.590Z,100381.07
2019-02-18T11:03:01.967Z,100385.97
2019-02-18T11:05:31.294Z,100384.11
2019-02-18T11:08:00.727Z,100380.84
2019-02-18T11:10:30.061Z,100372.73
2019-02-18T11:12:59.415Z,100372.73
2019-02-18T11:15:28.146Z,100368.48
2019-02-18T11:17:57.457Z,100366.38
2019-02-18T11:20:25.990Z,100367.53
2019-02-18T11:22:54.517Z,100363.86
2019-02-18T11:25:23.037Z,100357.48
2019-02-18T11:27:51.572Z,100353.92
2019-02-18T11:30:20.410Z,100349.56
2019-02-18T11:32:48.942Z,100346.86
2019-02-18T11:35:17.402Z,100354.25
2019-02-18T11:37:46.710Z,100346.20
2019-02-18T11:40:16.037Z,100347.27
2019-02-18T11:42:44.577Z,100344.10
2019-02-18T11:45:14.036Z,100335.37
2019-02-18T11:47:43.406Z,100336.94
2019-02-18T11:50:12.993Z,100333.88
2019-02-18T11:52:42.334Z,100326.11
2019-02-18T11:55:11.736Z,100327.15
2019-02-18T11:57:40.342Z,100326.19
2019-02-18T12:00:10.388Z,100320.33
2019-02-18T12:02:39.044Z,100318.01
2019-02-18T12:05:09.174Z,100320.09
2019-02-18T12:07:37.709Z,100311.14
2019-02-18T12:10:08.023Z,100304.91
2019-02-18T12:12:36.866Z,100308.84
2019-02-18T12:15:07.678Z,100298.69
2019-02-18T12:17:36.427Z,100295.89
2019-02-18T12:20:07.844Z,100294.66
2019-02-18T12:22:36.458Z,100292.78
2019-02-18T12:25:06.034Z,100294.45
2019-02-18T12:27:35.367Z,100289.02
2019-02-18T12:30:05.826Z,100286.00
2019-02-18T12:32:35.161Z,100285.89
2019-02-18T12:35:04.882Z,100286.05
2019-02-18T12:37:33.577Z,100283.04
2019-02-18T12:40:02.116Z,100276.68
2019-02-18T12:42:31.440Z,100280.97
2019-02-18T12:45:00.876Z,100284.09
2019-02-18T12:47:30.203Z,100282.50
2019-02-18T12:49:59.533Z,100274.45
2019-02-18T12:52:28.861Z,100274.09
2019-02-18T12:55:00.364Z,100271.50
2019-02-18T12:57:47.395Z,100271.89
2019-02-18T13:00:17.001Z,100267.47
2019-02-18T13:02:46.464Z,100265.44
2019-02-18T13:05:15.404Z,100270.97
2019-02-18T13:07:44.818Z,100260.27
2019-02-18T13:10:13.386Z,100260.66
2019-02-18T13:13:02.593Z,100260.03
2019-02-18T13:15:31.930Z,100255.76
2019-02-18T13:20:31.714Z,100255.88
2019-02-18T13:23:01.046Z,100253.73
2019-02-18T13:25:50.373Z,100257.84
2019-02-18T13:28:19.678Z,100255.42
2019-02-18T13:30:49.025Z,100251.16
2019-02-18T13:33:18.351Z,100242.36
2019-02-18T13:35:46.870Z,100243.13
2019-02-18T13:38:15.591Z,100247.16
2019-02-18T13:40:45.032Z,100247.19
2019-02-18T13:43:14.391Z,100240.51
2019-02-18T13:45:43.748Z,100240.42
2019-02-18T13:48:13.122Z,100242.02
2019-02-18T13:50:42.451Z,100242.31
2019-02-18T13:53:11.785Z,100234.81
2019-02-18T13:55:40.538Z,100238.88
2019-02-18T13:58:09.987Z,100240.77
2019-02-18T14:00:38.513Z,100228.70
2019-02-18T14:03:07.997Z,100235.02
2019-02-18T14:05:37.325Z,100232.06
2019-02-18T14:08:06.737Z,100231.52
2019-02-18T14:10:36.060Z,100227.77
2019-02-18T14:13:05.525Z,100223.67
2019-02-18T14:15:34.943Z,100226.63
2019-02-18T14:18:04.296Z,100227.22
2019-02-18T14:20:32.801Z,100222.70
2019-02-18T14:23:02.136Z,100224.53
2019-02-18T14:25:31.446Z,100229.98
2019-02-18T14:28:00.763Z,100223.98
2019-02-18T14:30:29.597Z,100221.13
2019-02-18T14:32:58.935Z,100218.05
2019-02-18T14:35:28.271Z,100219.67
2019-02-18T14:37:57.594Z,100220.63
2019-02-18T14:40:27.322Z,100213.48
2019-02-18T14:42:56.666Z,100216.92
2019-02-18T14:45:26.115Z,100216.64
2019-02-18T14:47:55.426Z,100214.58
2019-02-18T14:50:24.949Z,100212.84
2019-02-18T14:52:54.397Z,100215.34
2019-02-18T14:55:23.806Z,100215.65
2019-02-18T14:57:52.534Z,100216.00
2019-02-18T15:00:22.925Z,100219.45
2019-02-18T15:02:53.152Z,100211.59
2019-02-18T15:05:42.859Z,100213.95
2019-02-18T15:08:12.202Z,100210.50
2019-02-18T15:10:41.535Z,100209.13
2019-02-18T15:13:10.898Z,100207.62
2019-02-18T15:15:39.710Z,100213.96
2019-02-18T15:18:09.021Z,100218.08
2019-02-18T15:20:38.017Z,100213.30
2019-02-18T15:23:07.370Z,100214.16
2019-02-18T15:25:36.695Z,100215.32
2019-02-18T15:28:06.121Z,100214.80
2019-02-18T15:30:35.495Z,100216.82
2019-02-18T15:33:04.039Z,100216.97
2019-02-18T15:35:33.457Z,100217.39
2019-02-18T15:38:02.073Z,100216.46
2019-02-18T15:40:31.394Z,100221.03
2019-02-18T15:43:00.728Z,100222.20
2019-02-18T15:45:30.070Z,100224.44
2019-02-18T15:48:01.770Z,100222.30
2019-02-18T15:50:48.640Z,100220.22
2019-02-18T15:53:17.309Z,100226.42
2019-02-18T15:55:46.695Z,100228.21
2019-02-18T15:58:36.041Z,100228.27
2019-02-18T16:04:07.377Z,100235.31
2019-02-18T16:06:38.661Z,100232.27
2019-02-18T16:09:08.177Z,100238.41
2019-02-18T16:11:36.815Z,100236.99
2019-02-18T16:14:06.137Z,100237.95
2019-02-18T16:16:55.390Z,100239.72
2019-02-18T16:19:24.741Z,100236.75
2019-02-18T16:21:54.070Z,100241.73
2019-02-18T16:24:23.378Z,100247.56
2019-02-18T16:26:52.696Z,100248.56
2019-02-18T16:29:22.065Z,100254.37
2019-02-18T16:31:51.405Z,100259.84
2019-02-18T16:34:19.989Z,100259.62
2019-02-18T16:36:49.340Z,100256.25
2019-02-18T16:39:17.905Z,100254.64
2019-02-18T16:41:47.246Z,100260.07
2019-02-18T16:44:16.561Z,100257.97
2019-02-18T16:46:45.888Z,100262.99
2019-02-18T16:49:35.282Z,100263.86
2019-02-18T16:52:04.094Z,100261.73
2019-02-18T16:54:33.425Z,100264.36
2019-02-18T16:57:02.763Z,100265.85
2019-02-18T16:59:32.093Z,100264.89
2019-02-18T17:02:00.506Z,100268.97
2019-02-18T17:04:29.836Z,100267.90
2019-02-18T17:06:59.161Z,100273.83
2019-02-18T17:09:28.507Z,100271.52
2019-02-18T17:11:57.038Z,100275.09
2019-02-18T17:14:26.373Z,100276.73
2019-02-18T17:16:55.725Z,100276.72
2019-02-18T17:19:25.146Z,100274.87
2019-02-18T17:21:54.483Z,100280.87
2019-02-18T17:24:43.723Z,100276.41
2019-02-18T17:27:13.068Z,100278.70
2019-02-18T17:29:42.413Z,100281.67
2019-02-18T17:32:10.952Z,100290.99
2019-02-18T17:34:39.790Z,100287.79
2019-02-18T17:37:09.117Z,100289.71
2019-02-18T17:39:38.456Z,100289.71
2019-02-18T17:42:07.800Z,100296.59
2019-02-18T17:44:37.143Z,100299.67
2019-02-18T17:47:06.469Z,100299.00
2019-02-18T17:49:55.703Z,100297.80
2019-02-18T17:52:25.158Z,100300.48
2019-02-18T17:54:54.490Z,100298.48
2019-02-18T17:57:23.178Z,100304.56
2019-02-18T17:59:52.519Z,100303.91
2019-02-18T18:02:21.930Z,100305.76
2019-02-18T18:04:51.361Z,100307.81
2019-02-18T18:07:20.832Z,100306.16
2019-02-18T18:09:50.176Z,100303.58
2019-02-18T18:12:19.575Z,100308.86
2019-02-18T18:14:48.923Z,100312.55
2019-02-18T18:17:17.456Z,100315.02
2019-02-18T18:19:46.780Z,100318.67
2019-02-18T18:22:15.907Z,100313.95
2019-02-18T18:24:45.241Z,100317.81
2019-02-18T18:27:14.562Z,100319.73
2019-02-18T18:29:43.919Z,100323.03
2019-02-18T18:32:13.253Z,100327.58
2019-02-18T18:34:42.608Z,100325.66
2019-02-18T18:37:11.930Z,100323.97
2019-02-18T18:39:41.253Z,100321.71
2019-02-18T18:42:10.629Z,100326.59
2019-02-18T18:44:39.961Z,100327.91
2019-02-18T18:47:09.344Z,100325.13
2019-02-18T18:49:38.674Z,100331.40
2019-02-18T18:52:07.206Z,100330.62
2019-02-18T18:54:35.640Z,100336.97
2019-02-18T18:57:04.993Z,100335.63
2019-02-18T18:59:54.226Z,100339.77
2019-02-18T19:02:23.560Z,100342.89
2019-02-18T19:04:53.915Z,100345.29
2019-02-18T19:07:23.456Z,100344.06
2019-02-18T19:13:15.789Z,100353.48
2019-02-18T19:15:49.634Z,100350.62
2019-02-18T19:18:34.431Z,100353.55
2019-02-18T19:21:03.778Z,100357.53
2019-02-18T19:23:33.815Z,100355.95
2019-02-18T19:26:02.413Z,100350.33
2019-02-18T19:28:32.418Z,100360.56
2019-02-18T19:31:01.329Z,100355.51
2019-02-18T19:33:30.057Z,100357.72
2019-02-18T19:35:59.388Z,100356.41
2019-02-18T19:38:28.708Z,100359.70
2019-02-18T19:40:58.110Z,100360.25
2019-02-18T19:43:27.460Z,100363.11
2019-02-18T19:45:56.783Z,100362.06
2019-02-18T19:48:26.119Z,100360.15
2019-02-18T19:50:55.451Z,100361.10
2019-02-18T19:53:44.679Z,100362.95
2019-02-18T19:56:13.996Z,100359.17
2019-02-18T19:58:42.521Z,100357.34
2019-02-18T20:01:11.049Z,100356.05
2019-02-18T20:03:39.873Z,100355.00
2019-02-18T20:06:09.202Z,100358.69
2019-02-18T20:08:38.528Z,100359.05
2019-02-18T20:11:19.795Z,100361.59
2019-02-18T20:13:48.418Z,100360.55
2019-02-18T20:16:37.663Z,100358.09
2019-02-18T20:19:06.994Z,100356.75
2019-02-18T20:21:36.340Z,100361.49
2019-02-18T20:24:05.697Z,100361.02
2019-02-18T20:26:35.335Z,100358.37
2019-02-18T20:29:04.692Z,100354.37
2019-02-18T20:31:33.230Z,100351.76
2019-02-18T20:34:02.557Z,100352.40
2019-02-18T20:36:31.941Z,100350.52
2019-02-18T20:39:01.279Z,100356.59
2019-02-18T20:41:30.939Z,100357.77
2019-02-18T20:44:07.354Z,100356.97
2019-02-18T20:46:49.494Z,100355.04
2019-02-18T20:49:18.827Z,100346.02
2019-02-18T20:52:08.143Z,100356.84
2019-02-18T20:54:36.770Z,100358.10
2019-02-18T20:57:05.398Z,100356.70
2019-02-18T20:59:33.910Z,100359.05
2019-02-18T21:02:03.239Z,100359.71
2019-02-18T21:04:32.576Z,100356.43
2019-02-18T21:07:01.898Z,100356.70
2019-02-18T21:09:31.206Z,100357.13
2019-02-18T21:12:00.854Z,100361.33
2019-02-18T21:14:30.183Z,100351.15
2019-02-18T21:16:59.539Z,100358.55
2019-02-18T21:19:28.353Z,100362.14
2019-02-18T21:21:57.678Z,100359.14
2019-02-18T21:24:26.986Z,100360.17
2019-02-18T21:26:55.517Z,100359.47
2019-02-18T21:29:24.836Z,100360.82
2019-02-18T21:31:54.158Z,100365.69
2019-02-18T21:34:23.494Z,100368.47
2019-02-18T21:36:52.809Z,100362.68
2019-02-18T21:39:22.150Z,100365.28
2019-02-18T21:41:51.466Z,100366.73
2019-02-18T21:44:25.451Z,100360.72
2019-02-18T21:47:10.007Z,100363.31
2019-02-18T21:49:38.557Z,100359.10
2019-02-18T21:52:07.040Z,100355.73
2019-02-18T21:54:36.354Z,100357.80
2019-02-18T21:57:05.678Z,100362.41
2019-02-18T21:59:54.885Z,100361.09
2019-02-18T22:02:24.209Z,100366.77
2019-02-18T22:04:53.551Z,100362.49
2019-02-18T22:07:22.067Z,100370.62
2019-02-18T22:09:51.098Z,100371.30
2019-02-18T22:12:19.745Z,100369.95
2019-02-18T22:14:48.274Z,100372.61
2019-02-18T22:17:17.589Z,100373.89
2019-02-18T22:19:46.901Z,100371.97
2019-02-18T22:22:16.245Z,100376.00
2019-02-18T22:24:45.563Z,100374.21
2019-02-18T22:27:15.090Z,100381.38
2019-02-18T22:29:44.394Z,100376.02
2019-02-18T22:32:13.721Z,100380.42
2019-02-18T22:34:43.042Z,100386.95
2019-02-18T22:37:12.352Z,100387.48
2019-02-18T22:39:40.792Z,100387.61
2019-02-18T22:42:29.990Z,100386.41
2019-02-18T22:44:59.319Z,100393.61
2019-02-18T22:47:28.704Z,100386.64
2019-02-18T22:49:58.005Z,100385.93
2019-02-18T22:52:27.314Z,100387.00
2019-02-18T22:54:56.667Z,100384.83
2019-02-18T22:57:25.970Z,100390.16
2019-02-18T22:59:54.482Z,100376.73
2019-02-18T23:02:23.057Z,100383.82
2019-02-18T23:04:52.384Z,100378.17
2019-02-18T23:07:21.817Z,100387.42
2019-02-18T23:10:11.028Z,100381.95
2019-02-18T23:12:40.350Z,100392.08
2019-02-18T23:15:09.681Z,100384.43
2019-02-18T23:17:39.148Z,100394.16
2019-02-18T23:20:08.625Z,100392.45
2019-02-18T23:22:37.446Z,100394.23
2019-02-18T23:25:05.864Z,100395.53
2019-02-18T23:27:34.397Z,100400.09
2019-02-18T23:33:06.047Z,100396.17
2019-02-18T23:35:34.578Z,100399.52
2019-02-18T23:38:04.073Z,100402.00
2019-02-18T23:40:33.494Z,100393.47
2019-02-18T23:43:02.840Z,100393.45
2019-02-18T23:45:32.151Z,100394.73
2019-02-18T23:48:01.464Z,100394.27
2019-02-18T23:50:30.798Z,100393.92
2019-02-18T23:53:00.113Z,100396.36
2019-02-18T23:55:28.726Z,100393.53
2019-02-18T23:57:58.047Z,100400.07
